Auxvasse, Missouri
Current Conditions -  °F | °C
As of 10:54 AM on Wednesday 26 Nov 2014 (Local Time) from KCOU Reporting Station
Overcast Overcast  
Wind Chill: -2°   Ceiling: 600
Heat Index:   Visibility: 10mi
Dew Point:   Wind: 9mph
Humidity: 93%   Direction: 220°SW
Pressure: 29.95"   Gusts: NA
Location:  39.02°N, 91.9°W
Report Text: KCOU 261654Z 22008KT 10SM BKN006 OVC012 02/01 A2995 RMK AO2 SLP150 T00220011
Loading
Personal Weather Stations






























Interactive Weather Map New forecast layout! Learn more

10-Day Weather Forecast

Advertisements
Track Severe Weather on mobile